Weather observations for the past three days for
Duluth - Sky Harbor Airport
Imperial (Metric)
Date Time (cdt) Wind (mph) Vis. (mi.) Weather Sky Cond. Temperature (ºF) Relative Humidity Wind Chill (°F) Heat Index (°F) Pressure Precipitation (in)
Air Dwpt 6 hour altimeter (in) sea level (mb) 1 hr 3 hr 6 hr
Max. Min.
10 09:55 NW 8 G 17 10.00 Mostly Cloudy BKN043 BKN049 44.6 26.6 49% 41 30.11 0.0
10 09:35 NW 14 10.00 A Few Clouds FEW041 44.6 28.4 53% 39 30.1 0.0
10 09:15 N 12 10.00 Fair CLR 44.6 28.4 53% 39 30.1 0.0
10 08:55 NW 12 G 22 10.00 Fair CLR 44.6 28.4 53% 39 30.09 0.0
10 08:35 NW 13 10.00 Fair CLR 42.8 30.2 61% 37 30.09 0.0
10 08:15 NW 15 10.00 Fair CLR 42.8 30.2 61% 36 30.08 0.0
10 07:55 NW 21 10.00 Fair and Breezy CLR 41 30.2 66% 32 30.08 0.0
10 07:35 NW 15 10.00 Fair CLR 41 30.2 66% 34 30.07 0.0
10 07:15 NW 16 G 23 10.00 Fair CLR 41 30.2 66% 33 30.06 0.0
10 06:55 NW 18 10.00 Fair CLR 41 30.2 66% 33 30.05 0.0
10 06:35 NW 14 G 22 10.00 Fair CLR 41 30.2 66% 34 30.05 0.0
10 06:15 NW 13 G 18 10.00 Fair CLR 41 30.2 66% 34 30.04 0.0
10 05:55 NW 15 10.00 Fair CLR 41 30.2 66% 34 30.03 0.0
10 05:35 NW 10 10.00 Fair CLR 41 30.2 66% 35 30.01 0.0
10 05:15 NW 13 10.00 Fair CLR 42.8 30.2 61% 37 30.01 0.0
10 04:55 W 13 10.00 Fair CLR 42.8 32 66% 37 30 0.0
10 04:35 W 12 10.00 Fair CLR 42.8 30.2 61% 37 29.99 0.0
10 04:15 W 12 G 17 10.00 Fair CLR 42.8 32 66% 37 29.98 0.0
10 03:55 NW 14 10.00 Fair CLR 44.6 30.2 57% 39 29.98 0.0
10 03:35 NW 14 10.00 Fair CLR 44.6 30.2 57% 39 29.97 0.0
10 03:15 W 13 10.00 Mostly Cloudy BKN110 44.6 30.2 57% 39 29.96 0.0
10 02:55 W 10 10.00 Overcast OVC110 44.6 30.2 57% 40 29.96 0.0
10 02:35 NW 13 10.00 Overcast OVC100 46.4 30.2 53% 41 29.95 0.0
10 02:15 NW 16 10.00 Overcast FEW050 SCT080 OVC100 46.4 30.2 53% 40 29.95 0.0
10 01:55 NW 14 10.00 Overcast FEW049 BKN060 OVC075 46.4 30.2 53% 41 29.95 0.0
10 01:35 NW 13 10.00 Overcast FEW048 BKN060 OVC075 46.4 28.4 50% 41 29.94 0.0
10 01:15 W 9 10.00 Overcast FEW049 BKN060 OVC075 46.4 28.4 50% 42 29.94 0.0
10 00:55 NW 9 10.00 Overcast FEW047 BKN060 OVC070 46.4 28.4 50% 42 29.94 0.0
10 00:35 NW 9 10.00 Overcast FEW042 FEW050 OVC070 46.4 28.4 50% 42 29.94 0.0
10 00:15 W 7 10.00 Overcast FEW060 OVC070 46.4 28.4 50% 43 29.93 0.0
09 23:55 W 6 10.00 Overcast OVC075 46.4 28.4 50% 44 29.93 0.0
09 23:35 W 7 10.00 Overcast BKN075 OVC090 46.4 26.6 46% 43 29.93 0.0
09 23:15 W 7 10.00 Overcast FEW075 OVC090 48.2 26.6 43% 46 29.92 0.0
09 22:55 NW 7 10.00 Overcast OVC100 46.4 26.6 46% 43 29.92 0.0
09 22:35 NW 12 10.00 Mostly Cloudy BKN110 48.2 26.6 43% 44 29.92 0.0
09 22:15 NW 12 10.00 Partly Cloudy SCT110 48.2 26.6 43% 44 29.92 0.0
09 21:55 NW 10 10.00 Fair CLR 48.2 26.6 43% 44 29.91 0.0
09 21:35 NW 10 10.00 Fair CLR 48.2 26.6 43% 44 29.91 0.0
09 21:15 NW 12 10.00 A Few Clouds FEW070 50 24.8 37% 46 29.9 0.0
09 20:55 NW 17 10.00 Mostly Cloudy BKN075 BKN090 50 23 35% 45 29.89 0.0
09 20:35 NW 10 G 17 10.00 Overcast FEW070 SCT080 OVC090 50 23 35% 46 29.88 0.0
09 20:15 NW 16 G 23 10.00 Overcast FEW070 OVC090 51.8 21.2 30% 29.87 0.0
09 19:55 N 7 10.00 Mostly Cloudy FEW065 BKN090 48.2 28.4 46% 46 29.86 0.0
09 19:35 NW 13 G 22 10.00 Mostly Cloudy SCT075 BKN090 51.8 21.2 30% 29.85 0.0
09 19:15 N 13 G 18 10.00 A Few Clouds FEW085 51.8 24.8 35% 29.84 0.0
09 18:55 NW 14 G 28 10.00 A Few Clouds FEW080 53.6 23 30% 29.83 0.0
09 18:35 NW 17 G 24 10.00 Partly Cloudy SCT080 53.6 24.8 33% 29.82 0.0
09 18:15 NW 21 G 31 10.00 Partly Cloudy and Breezy SCT080 53.6 26.6 35% 29.82 0.0
09 17:55 NW 21 G 26 10.00 Partly Cloudy and Breezy FEW080 SCT090 53.6 24.8 33% 29.81 0.0
09 17:35 N 18 G 26 10.00 Mostly Cloudy FEW080 BKN090 57.2 23 27% 29.8 0.0
09 17:15 NW 24 10.00 Mostly Cloudy and Breezy BKN090 57.2 24.8 29% 29.79 0.0
09 16:55 NW 14 G 23 10.00 Mostly Cloudy BKN090 57.2 24.8 29% 29.79 0.0
09 16:35 NW 15 G 23 10.00 Mostly Cloudy BKN090 55.4 23 28% 29.78 0.0
09 16:15 NW 15 G 22 10.00 Mostly Cloudy BKN080 BKN090 55.4 23 28% 29.78 0.0
09 15:55 NW 14 10.00 Overcast BKN080 OVC090 55.4 24.8 31% 29.78 0.0
09 15:35 N 9 G 21 10.00 Overcast BKN080 OVC090 53.6 23 30% 29.78 0.0
09 15:15 N 10 G 18 10.00 Mostly Cloudy BKN075 BKN085 53.6 23 30% 29.77 0.0
09 14:55 NW 15 G 23 10.00 Mostly Cloudy BKN075 55.4 24.8 31% 29.77 0.0
09 14:35 N 16 G 22 10.00 Mostly Cloudy BKN070 53.6 21.2 28% 29.77 0.0
09 14:15 NW 13 G 20 10.00 Overcast OVC070 55.4 23 28% 29.76 0.0
09 13:55 NW 14 G 22 10.00 Mostly Cloudy BKN070 53.6 23 30% 29.76 0.0
09 13:35 NW 14 G 25 10.00 Mostly Cloudy BKN070 53.6 21.2 28% 29.76 0.0
09 13:15 N 14 G 21 10.00 Mostly Cloudy BKN065 53.6 23 30% 29.76 0.0
09 12:55 N 15 G 23 10.00 Partly Cloudy SCT065 53.6 23 30% 29.75 0.0
09 12:35 NW 24 G 31 10.00 A Few Clouds and Breezy FEW065 53.6 24.8 33% 29.75 0.0
09 12:15 N 16 G 26 10.00 Partly Cloudy SCT060 53.6 24.8 33% 29.74 0.0
09 11:55 NW 20 G 25 10.00 Mostly Cloudy BKN060 51.8 24.8 35% 29.73 0.0
09 11:35 N 12 G 22 10.00 Mostly Cloudy BKN060 51.8 24.8 35% 29.72 0.0
09 11:15 N 16 G 24 10.00 Partly Cloudy SCT060 51.8 24.8 35% 29.71 0.0
09 10:55 NW 14 G 22 10.00 A Few Clouds FEW060 51.8 24.8 35% 29.71 0.0
09 10:35 N 15 G 25 10.00 Partly Cloudy SCT055 50 24.8 37% 45 29.7 0.0
09 10:15 NW 17 G 26 10.00 A Few Clouds FEW055 51.8 24.8 35% 29.69 0.0
09 09:55 NW 22 10.00 A Few Clouds and Breezy FEW055 50 26.6 40% 44 29.68 0.0
09 09:35 NW 20 10.00 Fair CLR 50 23 35% 44 29.68 0.0
09 09:15 NW 17 G 23 10.00 Fair CLR 50 23 35% 45 29.67 0.0
09 08:55 NW 20 G 25 10.00 Fair CLR 50 21.2 32% 44 29.66 0.0
09 08:35 NW 18 10.00 Fair CLR 50 24.8 37% 44 29.65 0.0
09 08:15 NW 15 G 23 10.00 Partly Cloudy SCT100 50 21.2 32% 45 29.64 0.0
09 07:55 NW 10 10.00 Overcast OVC100 48.2 21.2 34% 44 29.64 0.0
09 07:35 NW 9 10.00 Overcast OVC100 46.4 21.2 37% 42 29.63 0.0
09 07:15 NW 10 10.00 Overcast OVC100 46.4 23 40% 42 29.63 0.0
09 06:55 NW 12 10.00 Overcast BKN090 OVC110 46.4 24.8 43% 42 29.62 0.0
09 06:35 NW 12 G 20 10.00 Overcast OVC090 48.2 21.2 34% 44 29.61 0.0
09 06:15 NW 16 10.00 Overcast FEW060 SCT070 OVC085 50 23 35% 45 29.6 0.0
09 05:55 NW 10 10.00 Mostly Cloudy FEW046 SCT055 BKN070 50 24.8 37% 46 29.58 0.0
09 05:35 NW 12 10.00 Overcast SCT047 BKN060 OVC075 50 23 35% 46 29.58 0.0
09 05:15 NW 10 10.00 Overcast SCT048 BKN060 OVC070 50 24.8 37% 46 29.57 0.0
09 04:55 NW 14 10.00 Mostly Cloudy FEW036 SCT048 BKN055 50 28.4 43% 45 29.57 0.0
09 04:35 NW 12 10.00 Mostly Cloudy FEW030 SCT043 BKN055 50 28.4 43% 46 29.57 0.0
09 04:15 NW 12 10.00 Overcast FEW049 BKN055 OVC070 51.8 30.2 44% 29.56 0.0
09 03:55 NW 7 10.00 Overcast BKN055 OVC070 50 28.4 43% 48 29.56 0.0
09 03:35 NW 6 10.00 Overcast OVC070 48.2 30.2 50% 46 29.56 0.0
09 03:15 W 8 10.00 Overcast OVC070 51.8 32 47% 29.55 0.0
09 02:55 W 9 10.00 Overcast OVC075 51.8 30.2 44% 29.54 0.0
09 02:35 SW 6 10.00 Overcast FEW060 BKN075 OVC095 51.8 32 47% 29.54 0.0
09 02:15 W 8 10.00 Overcast SCT060 BKN075 OVC100 51.8 33.8 50% 29.55 0.0
09 01:55 NW 10 10.00 Overcast FEW060 BKN075 OVC100 51.8 30.2 44% 29.55 0.0
09 01:35 NW 7 10.00 Overcast FEW055 SCT065 OVC080 51.8 32 47% 29.56 0.0
09 01:15 W 7 10.00 Overcast BKN075 OVC110 51.8 32 47% 29.56 0.0
09 00:55 W 9 10.00 Mostly Cloudy FEW045 FEW065 BKN110 51.8 32 47% 29.56 0.0
09 00:35 W 7 10.00 Mostly Cloudy SCT055 BKN065 51.8 32 47% 29.56 0.0
09 00:15 W 7 10.00 Mostly Cloudy BKN060 51.8 32 47% 29.55 0.0
08 23:55 W 7 10.00 Fair CLR 53.6 33.8 47% 29.55 0.0
08 23:35 W 9 10.00 A Few Clouds FEW043 FEW050 53.6 35.6 51% 29.55 0.0
08 23:15 W 10 10.00 Partly Cloudy FEW050 SCT055 53.6 35.6 51% 29.55 0.0
08 22:55 NW 9 10.00 Mostly Cloudy FEW046 BKN055 BKN070 53.6 37.4 54% 29.55 0.0
08 22:35 NW 10 10.00 Mostly Cloudy FEW045 SCT055 BKN070 53.6 33.8 47% 29.55 0.0
08 22:15 NW 12 10.00 Partly Cloudy FEW050 SCT070 57.2 32 39% 29.54 0.0
08 21:55 NW 15 10.00 Partly Cloudy FEW050 FEW055 SCT090 59 28.4 31% 29.54 0.0
08 21:35 NW 20 10.00 Overcast OVC090 59 32 36% 29.53 0.0
08 21:15 NW 18 G 25 10.00 Overcast OVC090 59 33.8 39% 29.52 0.0
08 20:55 NW 9 10.00 Overcast OVC095 57.2 35.6 44% 29.51 0.0
08 20:35 NW 7 10.00 Overcast OVC095 60.8 32 34% 29.5 0.0
08 20:15 NW 8 G 16 10.00 Overcast OVC100 60.8 28.4 29% 29.5 0.0
08 19:55 NW 9 10.00 Mostly Cloudy BKN110 60.8 32 34% 29.5 0.0
08 19:35 W 14 10.00 Mostly Cloudy BKN110 60.8 32 34% 29.5 0.0
08 19:15 W 15 10.00 Overcast OVC100 62.6 30.2 30% 29.5 0.0
08 18:55 W 12 10.00 Mostly Cloudy BKN100 BKN120 62.6 28.4 27% 29.5 0.0
08 18:35 W 12 10.00 Partly Cloudy SCT100 SCT120 62.6 28.4 27% 29.51 0.0
08 18:15 W 12 G 21 10.00 Partly Cloudy SCT100 64.4 28.4 26% 29.51 0.0
08 17:55 W 16 G 22 10.00 Partly Cloudy SCT100 62.6 28.4 27% 29.52 0.0
08 17:35 W 13 10.00 Mostly Cloudy BKN100 64.4 28.4 26% 29.52 0.0
08 17:15 SW 17 10.00 Partly Cloudy SCT100 64.4 26.6 24% 29.53 0.0
08 16:55 W 14 G 23 10.00 Mostly Cloudy BKN100 64.4 28.4 26% 29.53 0.0
08 16:35 SW 14 G 24 10.00 Mostly Cloudy BKN100 64.4 24.8 22% 29.54 0.0
08 16:15 SW 16 10.00 Mostly Cloudy BKN100 64.4 26.6 24% 29.54 0.0
08 15:55 W 21 10.00 Partly Cloudy and Breezy SCT100 64.4 26.6 24% 29.55 0.0
08 15:35 SW 15 G 21 10.00 Mostly Cloudy BKN100 64.4 26.6 24% 29.55 0.0
08 15:15 SW 12 10.00 Mostly Cloudy BKN100 64.4 28.4 26% 29.57 0.0
08 14:55 SW 9 G 18 10.00 Mostly Cloudy BKN100 64.4 26.6 24% 29.58 0.0
08 14:35 W 7 10.00 Overcast OVC100 64.4 23 21% 29.59 0.0
08 14:15 SW 16 10.00 Mostly Cloudy BKN095 BKN110 62.6 24.8 24% 29.6 0.0
08 13:55 SW 6 G 14 10.00 Mostly Cloudy BKN100 62.6 23 22% 29.6 0.0
08 13:35 SW 8 G 15 10.00 Mostly Cloudy BKN095 62.6 24.8 24% 29.61 0.0
08 13:15 S 10 10.00 A Few Clouds FEW110 62.6 24.8 24% 29.62 0.0
08 12:55 Vrbl 7 10.00 Partly Cloudy SCT110 60.8 23 23% 29.63 0.0
08 12:35 Vrbl 6 G 13 10.00 Fair CLR 59 24.8 27% 29.65 0.0
08 12:15 E 7 10.00 Fair CLR 59 23 25% 29.66 0.0
08 11:55 E 7 10.00 Fair CLR 57.2 24.8 29% 29.67 0.0
08 11:35 Calm 10.00 Fair CLR 59 21.2 23% 29.67 0.0
08 11:15 Calm 10.00 Fair CLR 57.2 24.8 29% 29.68 0.0
08 10:55 SW 7 10.00 Fair CLR 57.2 24.8 29% 29.69 0.0
08 10:35 W 6 10.00 Fair CLR 55.4 26.6 33% 29.69 0.0
08 10:15 SW 6 10.00 Fair CLR 53.6 28.4 38% 29.7 0.0
08 09:55 SW 8 10.00 Fair CLR 51.8 28.4 41% 29.71 0.0
08 09:35 SW 7 10.00 Fair CLR 51.8 26.6 38% 29.72 0.0
08 09:15 SW 8 10.00 Fair CLR 48.2 26.6 43% 45 29.72 0.0
08 08:55 SW 7 10.00 A Few Clouds FEW120 48.2 24.8 40% 46 29.73 0.0
08 08:35 W 9 10.00 Partly Cloudy SCT120 46.4 24.8 43% 42 29.73 0.0
08 08:15 SW 6 10.00 Partly Cloudy SCT120 44.6 26.6 49% 42 29.73 0.0
08 07:55 Calm 10.00 Fair CLR 42.8 24.8 49% 29.73 0.0
08 07:35 S 3 10.00 Fair CLR 39.2 24.8 56% 29.73 0.0
08 07:15 Calm 10.00 Fair CLR 37.4 26.6 65% 29.73 0.0
08 06:55 Calm 10.00 Fair CLR 35.6 26.6 70% 29.73 0.0
08 06:35 Calm 10.00 Fair CLR 33.8 24.8 70% 29.73 0.0
08 06:15 Calm 10.00 Fair CLR 32 26.6 80% 29.73 0.0
08 05:55 SW 5 10.00 Fair CLR 32 26.6 80% 28 29.73 0.0
08 05:35 SW 5 10.00 A Few Clouds FEW060 32 26.6 80% 28 29.73 0.0
08 05:15 SW 5 10.00 Mostly Cloudy BKN060 32 24.8 75% 28 29.73 0.0
08 04:55 SW 6 10.00 Overcast FEW044 OVC055 32 24.8 75% 27 29.74 0.0
08 04:35 SW 5 10.00 Mostly Cloudy SCT050 BKN060 32 24.8 75% 28 29.74 0.0
08 04:15 SW 3 10.00 Partly Cloudy FEW050 SCT060 33.8 26.6 75% 29.74 0.0
08 03:55 Calm 10.00 A Few Clouds FEW046 FEW055 33.8 28.4 81% 29.75 0.0
08 03:35 Calm 10.00 Partly Cloudy BKN042 SCT050 33.8 28.4 81% 29.75 0.0
08 03:15 S 6 10.00 Mostly Cloudy SCT044 BKN050 BKN060 35.6 28.4 75% 31 29.75 0.0
08 02:55 Calm 10.00 Overcast FEW047 OVC055 35.6 32 87% 29.76 0.0
08 02:35 S 5 10.00 Overcast OVC060 37.4 33.8 87% 34 29.76 0.0
08 02:15 S 3 10.00 Overcast OVC060 37.4 35.6 93% 29.76 0.0
08 01:55 Calm 10.00 Overcast BKN060 OVC070 39.2 32 75% 29.77 0.0
08 01:35 Calm 10.00 Overcast SCT055 BKN065 OVC075 39.2 30.2 70% 29.77 0.0
08 01:15 Calm 10.00 Mostly Cloudy SCT055 BKN065 37.4 28.4 70% 29.77 0.0
08 00:55 Calm 10.00 Mostly Cloudy SCT050 BKN065 37.4 32 81% 29.78 0.0
08 00:35 Calm 10.00 Overcast BKN065 OVC075 37.4 33.8 87% 29.78 0.0
08 00:15 N 3 10.00 Mostly Cloudy BKN070 BKN075 37.4 32 81% 29.78 0.0
07 23:55 Calm 10.00 Partly Cloudy SCT075 SCT090 37.4 30.2 75% 29.78 0.0
07 23:35 Calm 10.00 Mostly Cloudy FEW075 BKN090 42.8 30.2 61% 29.78 0.0
07 23:15 Calm 10.00 Partly Cloudy FEW075 SCT090 42.8 26.6 53% 29.78 0.0
07 22:55 Calm 10.00 A Few Clouds FEW050 FEW080 42.8 23 46% 29.79 0.0
07 22:35 NE 5 10.00 A Few Clouds FEW049 FEW055 42.8 24.8 49% 41 29.79 0.0
07 22:15 Calm 10.00 Partly Cloudy FEW047 SCT055 44.6 23 43% 29.78 0.0
07 21:55 N 5 10.00 Mostly Cloudy FEW042 SCT050 BKN055 46.4 24.8 43% 45 29.78 0.0
07 21:35 N 3 10.00 Partly Cloudy FEW041 SCT050 44.6 26.6 49% 29.78 0.0
07 21:15 NW 3 10.00 A Few Clouds FEW050 FEW085 48.2 23 37% 29.77 0.0
07 20:55 N 5 10.00 A Few Clouds FEW080 48.2 24.8 40% 47 29.77 0.0
07 20:35 N 6 10.00 Partly Cloudy SCT085 48.2 26.6 43% 46 29.76 0.0
07 20:15 Calm 10.00 Overcast OVC085 51.8 24.8 35% 29.76 0.0
07 19:55 Calm 10.00 Overcast OVC080 51.8 24.8 35% 29.75 0.0
07 19:35 Calm 10.00 Overcast OVC085 51.8 24.8 35% 29.75 0.0
07 19:15 S 3 10.00 Overcast OVC085 51.8 24.8 35% 29.75 0.0
07 18:55 S 5 10.00 Overcast OVC080 51.8 24.8 35% 0 0.0
07 18:35 SW 6 10.00 Mostly Cloudy FEW070 BKN085 51.8 26.6 38% 29.75 0.0
07 18:15 Calm 9.00 Partly Cloudy FEW060 SCT075 51.8 23 32% 29.76 0.0
07 17:55 W 9 10.00 Partly Cloudy FEW060 SCT080 51.8 26.6 38% 29.77 0.0
07 17:35 W 13 G 25 10.00 Partly Cloudy FEW065 SCT085 51.8 26.6 38% 29.77 0.0
07 17:15 W 5 10.00 Overcast BKN070 OVC085 51.8 26.6 38% 29.77 0.0
07 16:55 NW 7 10.00 Overcast FEW049 BKN065 OVC100 48.2 28.4 46% 46 29.77 0.0
07 16:35 N 10 G 17 10.00 Overcast SCT050 BKN065 OVC075 48.2 30.2 50% 44 29.77 0.0
07 16:15 W 9 G 20 10.00 Mostly Cloudy FEW041 SCT055 BKN075 50 26.6 40% 47 29.78 0.0
07 15:55 W 22 10.00 Mostly Cloudy and Breezy BKN070 BKN080 51.8 26.6 38% 29.77 0.0
07 15:35 W 17 10.00 Partly Cloudy FEW065 SCT085 SCT110 53.6 26.6 35% 29.77 0.0
07 15:15 W 18 G 25 10.00 Partly Cloudy FEW044 FEW060 SCT070 51.8 28.4 41% 29.79 0.0
07 14:55 W 26 G 37 10.00 Mostly Cloudy and Windy FEW055 BKN070 51.8 26.6 38% 29.78 0.0
07 14:35 W 20 G 26 10.00 Mostly Cloudy SCT070 BKN080 51.8 26.6 38% 29.79 0.0
07 14:15 W 20 10.00 Partly Cloudy FEW049 FEW065 SCT075 51.8 26.6 38% 29.78 0.0
07 13:55 W 13 G 24 10.00 Overcast FEW034 SCT060 OVC070 50 26.6 40% 46 29.79 0.0
07 13:35 W 23 10.00 Overcast and Breezy SCT055 BKN075 OVC090 50 23 35% 44 29.79 0.0
07 13:15 W 20 10.00 Mostly Cloudy SCT075 BKN095 51.8 23 32% 29.79 0.0
07 12:55 W 18 10.00 Mostly Cloudy SCT070 SCT080 BKN090 51.8 24.8 35% 29.8 0.0
07 12:35 W 15 G 21 10.00 Mostly Cloudy SCT070 BKN085 51.8 24.8 35% 29.81 0.0
07 12:15 W 20 10.00 Mostly Cloudy BKN065 BKN075 BKN085 50 23 35% 44 29.81 0.0
07 11:55 SW 13 10.00 Mostly Cloudy SCT065 BKN080 BKN090 50 24.8 37% 46 29.82 0.0
07 11:35 W 17 10.00 Overcast SCT065 BKN075 OVC095 50 24.8 37% 45 29.83 0.0
07 11:15 W 15 10.00 Mostly Cloudy FEW060 SCT075 BKN090 48.2 24.8 40% 43 29.84 0.0
07 10:55 NW 10 10.00 Mostly Cloudy FEW075 BKN090 48.2 23 37% 44 29.84 0.0
07 10:35 NW 15 10.00 Overcast SCT060 BKN070 OVC090 46.4 24.8 43% 41 29.85 0.0
07 10:15 W 18 G 25 10.00 Mostly Cloudy FEW050 SCT055 BKN070 46.4 24.8 43% 40 29.85 0.0
Date Time (cdt) Wind (mph) Vis. (mi.) Weather Sky Cond. Air Dwpt Max. Min. Relative Humidity Wind Chill (°F) Heat Index (°F) altimeter (in) sea level (mb) 1 hr 3 hr 6 hr
6 hour
Temperature (ºF) Pressure Precipitation (in)